Terminal Aerodrome Forecast
Issued by NWS Charleston, WV

Current Version | Previous Version | Text Only | Print | Product List | Glossary Off
Versions: 1 2 3 4 5 6 7 8 9 10 11 12 13 14 15 16 17 18 19 20 21 22 23

000
FTUS41 KRLX 192346
TAFCRW
TAF
KCRW 192346Z 2000/2024 VRB02KT P6SM OVC020
     FM200500 00000KT 4SM BR OVC018
     FM200700 00000KT 2SM BR SCT001 BKN015
     FM200900 00000KT 1/4SM FG VV001
     FM201300 00000KT 1SM BR BKN001 BKN020
     FM201500 00000KT 6SM BR BKN020
     FM201600 VRB02KT P6SM SCT030
     FM201900 07004KT P6SM FEW200=

USA.gov is the U.S. government's official web portal to all federal, state and local government web resources and services.